createdAt,value
2017-12-01T00:01:38.558Z,24.83
2017-12-01T00:04:05.157Z,21.47
2017-12-01T00:06:31.751Z,23.73
2017-12-01T00:08:58.350Z,21.77
2017-12-01T00:11:24.942Z,24.20
2017-12-01T00:13:51.535Z,21.67
2017-12-01T00:16:18.134Z,22.73
2017-12-01T00:18:44.721Z,22.27
2017-12-01T00:21:11.317Z,23.43
2017-12-01T00:23:37.933Z,22.60
2017-12-01T00:26:04.530Z,20.40
2017-12-01T00:28:31.110Z,22.73
2017-12-01T00:30:57.714Z,21.90
2017-12-01T00:33:24.306Z,22.90
2017-12-01T00:35:50.893Z,20.87
2017-12-01T00:38:17.508Z,20.37
2017-12-01T00:40:44.098Z,21.10
2017-12-01T00:43:10.684Z,22.37
2017-12-01T00:45:37.291Z,26.47
2017-12-01T00:48:03.878Z,24.60
2017-12-01T00:50:30.471Z,21.00
2017-12-01T00:52:57.070Z,23.37
2017-12-01T00:55:23.666Z,23.77
2017-12-01T00:57:50.269Z,23.70
2017-12-01T01:00:16.854Z,27.37
2017-12-01T01:02:43.451Z,24.57
2017-12-01T01:05:10.051Z,23.60
2017-12-01T01:07:36.650Z,23.70
2017-12-01T01:10:03.251Z,22.60
2017-12-01T01:12:29.838Z,21.23
2017-12-01T01:14:56.446Z,24.93
2017-12-01T01:17:23.044Z,21.90
2017-12-01T01:19:49.641Z,23.43
2017-12-01T01:22:16.254Z,23.30
2017-12-01T01:24:42.866Z,22.83
2017-12-01T01:27:09.459Z,21.40
2017-12-01T01:29:36.075Z,22.87
2017-12-01T01:32:02.670Z,19.23
2017-12-01T01:34:29.258Z,23.03
2017-12-01T01:36:55.863Z,21.80
2017-12-01T01:39:22.476Z,22.20
2017-12-01T01:41:49.053Z,22.70
2017-12-01T01:44:15.670Z,20.60
2017-12-01T01:46:42.262Z,25.17
2017-12-01T01:49:08.850Z,22.73
2017-12-01T01:51:35.450Z,23.97
2017-12-01T01:54:02.059Z,25.03
2017-12-01T01:56:28.647Z,23.97
2017-12-01T01:58:55.270Z,25.60
2017-12-01T02:01:21.869Z,25.80
2017-12-01T02:03:48.454Z,22.87
2017-12-01T02:06:15.054Z,25.33
2017-12-01T02:08:41.642Z,21.70
2017-12-01T02:11:08.242Z,25.73
2017-12-01T02:13:34.902Z,22.60
2017-12-01T02:16:01.498Z,22.63
2017-12-01T02:18:28.090Z,21.97
2017-12-01T02:20:54.714Z,23.83
2017-12-01T02:23:21.301Z,20.77
2017-12-01T02:25:47.894Z,21.70
2017-12-01T02:28:14.501Z,23.13
2017-12-01T02:30:41.095Z,26.80
2017-12-01T02:33:07.686Z,24.53
2017-12-01T02:35:34.291Z,23.60
2017-12-01T02:38:00.878Z,22.27
2017-12-01T02:40:27.488Z,21.90
2017-12-01T02:42:54.087Z,20.53
2017-12-01T02:45:20.675Z,21.80
2017-12-01T02:47:47.267Z,22.93
2017-12-01T02:50:13.867Z,21.33
2017-12-01T02:52:40.458Z,22.77
2017-12-01T02:55:07.053Z,21.80
2017-12-01T02:57:33.658Z,22.13
2017-12-01T03:00:00.246Z,21.27
2017-12-01T03:02:26.842Z,25.50
2017-12-01T03:04:53.453Z,23.67
2017-12-01T03:07:20.039Z,28.03
2017-12-01T03:09:46.625Z,21.40
2017-12-01T03:12:13.233Z,23.07
2017-12-01T03:14:39.814Z,24.70
2017-12-01T03:17:06.414Z,24.90
2017-12-01T03:19:33.039Z,28.00
2017-12-01T03:21:59.626Z,22.00
2017-12-01T03:24:26.214Z,23.37
2017-12-01T03:26:52.814Z,22.57
2017-12-01T03:29:19.409Z,23.50
2017-12-01T03:31:45.999Z,22.33
2017-12-01T03:34:12.614Z,20.27
2017-12-01T03:36:39.209Z,20.00
2017-12-01T03:39:05.805Z,21.93
2017-12-01T03:41:32.410Z,22.33
2017-12-01T03:43:59.007Z,22.20
2017-12-01T03:46:25.598Z,21.50
2017-12-01T03:48:52.270Z,22.20
2017-12-01T03:51:18.862Z,22.60
2017-12-01T03:53:45.450Z,23.37
2017-12-01T03:56:12.066Z,21.23
2017-12-01T03:58:38.649Z,22.47
2017-12-01T04:01:05.247Z,20.60
2017-12-01T04:03:31.854Z,19.73
2017-12-01T04:05:58.446Z,19.80
2017-12-01T04:08:25.044Z,22.23
2017-12-01T04:10:51.642Z,21.47
2017-12-01T04:13:18.236Z,20.53
2017-12-01T04:15:44.833Z,22.10
2017-12-01T04:18:11.442Z,21.40
2017-12-01T04:20:38.043Z,21.87
2017-12-01T04:23:04.639Z,22.00
2017-12-01T04:25:31.245Z,21.50
2017-12-01T04:27:57.850Z,22.43
2017-12-01T04:30:24.446Z,20.70
2017-12-01T04:32:51.050Z,21.87
2017-12-01T04:35:17.639Z,23.60
2017-12-01T04:37:44.226Z,23.80
2017-12-01T04:40:10.842Z,21.93
2017-12-01T04:42:37.458Z,24.40
2017-12-01T04:45:04.054Z,27.87
2017-12-01T04:47:30.654Z,24.10
2017-12-01T04:49:57.285Z,21.60
2017-12-01T04:52:23.870Z,23.87
2017-12-01T04:54:50.490Z,25.70
2017-12-01T04:57:17.087Z,23.70
2017-12-01T04:59:43.678Z,23.57
2017-12-01T05:02:10.290Z,24.37
2017-12-01T05:04:36.894Z,23.43
2017-12-01T05:07:03.482Z,24.93
2017-12-01T05:09:30.087Z,25.53
2017-12-01T05:11:56.686Z,24.70
2017-12-01T05:14:23.275Z,21.80
2017-12-01T05:16:49.890Z,23.70
2017-12-01T05:19:16.492Z,22.83
2017-12-01T05:21:43.071Z,24.50
2017-12-01T05:24:09.686Z,24.00
2017-12-01T05:26:36.282Z,25.73
2017-12-01T05:29:02.882Z,23.27
2017-12-01T05:31:29.509Z,25.40
2017-12-01T05:33:56.106Z,23.47
2017-12-01T05:36:22.694Z,23.73
2017-12-01T05:38:49.301Z,22.77
2017-12-01T05:41:15.893Z,23.00
2017-12-01T05:43:42.502Z,26.00
2017-12-01T05:46:09.133Z,27.20
2017-12-01T05:48:35.724Z,22.10
2017-12-01T05:51:02.314Z,23.70
2017-12-01T05:53:28.918Z,23.10
2017-12-01T05:55:55.508Z,23.53
2017-12-01T05:58:22.090Z,21.40
2017-12-01T06:00:48.740Z,21.83
2017-12-01T06:03:15.321Z,22.00
2017-12-01T06:05:41.928Z,21.00
2017-12-01T06:08:08.519Z,21.63
2017-12-01T06:10:35.110Z,22.50
2017-12-01T06:13:01.698Z,22.93
2017-12-01T06:15:28.321Z,28.27
2017-12-01T06:17:54.922Z,25.13
2017-12-01T06:20:21.507Z,22.63
2017-12-01T06:22:48.112Z,21.67
2017-12-01T06:25:14.705Z,24.33
2017-12-01T06:27:41.305Z,22.80
2017-12-01T06:30:07.915Z,24.27
2017-12-01T06:32:34.502Z,24.80
2017-12-01T06:35:01.094Z,21.70
2017-12-01T06:37:27.693Z,21.37
2017-12-01T06:39:54.293Z,22.30
2017-12-01T06:42:20.878Z,20.93
2017-12-01T06:44:47.498Z,23.30
2017-12-01T06:47:14.081Z,25.93
2017-12-01T06:49:40.678Z,22.57
2017-12-01T06:52:07.278Z,23.90
2017-12-01T06:54:33.866Z,22.93
2017-12-01T06:57:00.454Z,22.47
2017-12-01T06:59:27.064Z,23.40
2017-12-01T07:01:53.651Z,22.67
2017-12-01T07:04:20.258Z,21.62
2017-12-01T07:06:46.874Z,21.50
2017-12-01T07:09:13.461Z,21.83
2017-12-01T07:11:40.062Z,20.27
2017-12-01T07:14:06.691Z,22.10
2017-12-01T07:16:33.276Z,21.90
2017-12-01T07:18:59.878Z,23.37
2017-12-01T07:21:26.474Z,23.00
2017-12-01T07:23:53.062Z,24.57
2017-12-01T07:26:25.561Z,20.90
2017-12-01T07:28:52.441Z,20.50
2017-12-01T07:31:19.013Z,20.77
2017-12-01T07:33:45.615Z,20.93
2017-12-01T07:36:12.203Z,21.93
2017-12-01T07:38:38.798Z,23.53
2017-12-01T07:41:05.398Z,22.30
2017-12-01T07:43:31.993Z,25.00
2017-12-01T07:45:58.583Z,22.57
2017-12-01T07:48:25.194Z,22.80
2017-12-01T07:50:51.774Z,22.60
2017-12-01T07:53:18.359Z,22.80
2017-12-01T07:55:44.966Z,22.43
2017-12-01T07:58:11.556Z,22.10
2017-12-01T08:00:38.171Z,21.03
2017-12-01T08:03:04.773Z,21.77
2017-12-01T08:05:31.377Z,20.83
2017-12-01T08:07:57.967Z,20.97
2017-12-01T08:10:24.566Z,23.00
2017-12-01T08:12:51.166Z,26.43
2017-12-01T08:15:17.763Z,22.80
2017-12-01T08:17:44.365Z,22.73
2017-12-01T08:20:10.958Z,23.27
2017-12-01T08:22:43.258Z,23.00
2017-12-01T08:25:15.706Z,25.73
2017-12-01T08:27:42.305Z,24.07
2017-12-01T08:30:08.898Z,26.90
2017-12-01T08:32:35.521Z,27.77
2017-12-01T08:35:02.122Z,26.57
2017-12-01T08:37:28.706Z,28.90
2017-12-01T08:39:55.314Z,22.90
2017-12-01T08:42:21.908Z,26.83
2017-12-01T08:44:48.498Z,27.87
2017-12-01T08:47:15.094Z,26.50
2017-12-01T08:49:41.698Z,28.30
2017-12-01T08:52:08.286Z,27.70
2017-12-01T08:54:34.889Z,29.37
2017-12-01T08:57:01.486Z,28.80
2017-12-01T08:59:28.074Z,28.67
2017-12-01T09:01:54.738Z,29.00
2017-12-01T09:04:21.266Z,29.47
2017-12-01T09:06:47.855Z,29.30
2017-12-01T09:09:14.460Z,29.83
2017-12-01T09:11:41.046Z,30.33
2017-12-01T09:14:07.638Z,30.53
2017-12-01T09:16:34.258Z,30.73
2017-12-01T09:19:00.856Z,28.83
2017-12-01T09:21:27.442Z,27.93
2017-12-01T09:23:54.058Z,30.63
2017-12-01T09:26:20.651Z,28.00
2017-12-01T09:28:47.246Z,28.27
2017-12-01T09:31:13.862Z,29.03
2017-12-01T09:33:40.458Z,27.13
2017-12-01T09:36:07.050Z,30.77
2017-12-01T09:38:33.654Z,29.60
2017-12-01T09:41:00.250Z,30.57
2017-12-01T09:43:26.843Z,42.00
2017-12-01T09:45:53.442Z,25.20
2017-12-01T09:48:20.034Z,29.90
2017-12-01T09:50:46.625Z,27.37
2017-12-01T09:53:13.238Z,32.23
2017-12-01T09:55:39.845Z,30.90
2017-12-01T09:58:06.442Z,30.07
2017-12-01T10:00:33.046Z,28.80
2017-12-01T10:02:59.650Z,28.67
2017-12-01T10:05:26.246Z,32.20
2017-12-01T10:07:52.849Z,32.67
2017-12-01T10:10:19.444Z,29.60
2017-12-01T10:12:46.034Z,27.93
2017-12-01T10:15:12.650Z,29.83
2017-12-01T10:17:39.278Z,28.40
2017-12-01T10:20:05.879Z,32.70
2017-12-01T10:22:32.486Z,27.03
2017-12-01T10:24:59.067Z,31.57
2017-12-01T10:27:25.658Z,33.57
2017-12-01T10:29:52.274Z,31.67
2017-12-01T10:32:18.870Z,34.63
2017-12-01T10:34:45.463Z,31.23
2017-12-01T10:37:12.061Z,31.70
2017-12-01T10:39:38.658Z,32.57
2017-12-01T10:42:05.251Z,31.20
2017-12-01T10:44:31.850Z,29.17
2017-12-01T10:46:58.441Z,30.00
2017-12-01T10:49:25.034Z,27.73
2017-12-01T10:51:51.660Z,31.00
2017-12-01T10:54:18.249Z,34.03
2017-12-01T10:56:44.846Z,35.67
2017-12-01T10:59:11.466Z,31.53
2017-12-01T11:01:38.079Z,33.17
2017-12-01T11:04:04.666Z,34.70
2017-12-01T11:06:31.273Z,31.70
2017-12-01T11:08:57.861Z,31.30
2017-12-01T11:11:24.455Z,32.00
2017-12-01T11:13:51.059Z,29.60
2017-12-01T11:16:17.650Z,28.33
2017-12-01T11:18:44.242Z,31.47
2017-12-01T11:21:10.872Z,27.07
2017-12-01T11:23:37.457Z,29.00
2017-12-01T11:26:04.045Z,26.03
2017-12-01T11:28:30.654Z,26.70
2017-12-01T11:30:57.239Z,26.73
2017-12-01T11:33:23.831Z,21.50
2017-12-01T11:35:50.450Z,22.70
2017-12-01T11:38:17.042Z,20.57
2017-12-01T11:40:43.625Z,22.57
2017-12-01T11:43:10.226Z,23.80
2017-12-01T11:45:36.818Z,22.50
2017-12-01T11:48:03.415Z,21.23
2017-12-01T11:50:30.019Z,21.20
2017-12-01T11:52:56.609Z,22.33
2017-12-01T11:55:23.194Z,23.23
2017-12-01T11:57:49.798Z,26.53
2017-12-01T12:00:16.383Z,19.83
2017-12-01T12:02:42.974Z,18.60
2017-12-01T12:05:09.594Z,21.13
2017-12-01T12:07:36.237Z,20.47
2017-12-01T12:10:02.826Z,17.97
2017-12-01T12:12:29.422Z,17.23
2017-12-01T12:14:56.023Z,17.30
2017-12-01T12:17:22.622Z,19.17
2017-12-01T12:19:49.234Z,19.90
2017-12-01T12:22:15.846Z,17.87
2017-12-01T12:24:42.433Z,18.97
2017-12-01T12:27:09.044Z,16.37
2017-12-01T12:29:35.658Z,16.03
2017-12-01T12:32:02.242Z,17.70
2017-12-01T12:34:28.850Z,16.47
2017-12-01T12:36:55.447Z,21.57
2017-12-01T12:39:22.029Z,16.50
2017-12-01T12:41:48.630Z,18.97
2017-12-01T12:44:15.590Z,18.33
2017-12-01T12:46:42.198Z,15.73
2017-12-01T12:49:09.237Z,17.60
2017-12-01T12:51:35.887Z,16.90
2017-12-01T12:54:02.479Z,16.03
2017-12-01T12:56:29.070Z,14.83
2017-12-01T12:58:55.739Z,12.93
2017-12-01T13:01:22.322Z,15.23
2017-12-01T13:03:49.085Z,18.50
2017-12-01T13:06:15.757Z,18.83
2017-12-01T13:08:42.481Z,18.93
2017-12-01T13:11:09.199Z,19.17
2017-12-01T13:13:35.829Z,18.50
2017-12-01T13:16:02.418Z,22.10
2017-12-01T13:18:29.014Z,21.30
2017-12-01T13:20:55.602Z,19.60
2017-12-01T13:23:22.194Z,22.07
2017-12-01T13:25:48.894Z,20.90
2017-12-01T13:28:15.490Z,19.30
2017-12-01T13:30:42.086Z,18.57
2017-12-01T13:33:09.413Z,20.53
2017-12-01T13:35:36.094Z,17.90
2017-12-01T13:38:02.690Z,16.57
2017-12-01T13:40:29.392Z,17.13
2017-12-01T13:42:56.070Z,17.60
2017-12-01T13:45:22.666Z,17.43
2017-12-01T13:47:49.350Z,19.40
2017-12-01T13:50:15.953Z,18.57
2017-12-01T13:52:42.554Z,17.00
2017-12-01T13:55:09.482Z,17.83
2017-12-01T13:57:36.061Z,19.03
2017-12-01T14:00:02.660Z,16.27
2017-12-01T14:02:29.271Z,17.87
2017-12-01T14:04:55.874Z,17.97
2017-12-01T14:07:22.518Z,18.10
2017-12-01T14:09:49.110Z,17.77
2017-12-01T14:12:15.722Z,17.23
2017-12-01T14:14:42.568Z,16.20
2017-12-01T14:17:09.168Z,17.87
2017-12-01T14:19:35.880Z,16.87
2017-12-01T14:22:02.466Z,17.57
2017-12-01T14:24:29.066Z,16.97
2017-12-01T14:26:55.649Z,18.77
2017-12-01T14:29:22.275Z,18.43
2017-12-01T14:31:48.881Z,17.30
2017-12-01T14:34:15.457Z,17.80
2017-12-01T14:36:42.054Z,17.87
2017-12-01T14:39:08.729Z,16.37
2017-12-01T14:41:35.307Z,19.77
2017-12-01T14:44:01.916Z,17.70
2017-12-01T14:46:28.509Z,19.60
2017-12-01T14:48:55.110Z,19.60
2017-12-01T14:51:21.698Z,17.50
2017-12-01T14:53:48.301Z,18.53
2017-12-01T14:56:14.894Z,19.87
2017-12-01T14:58:41.494Z,21.03
2017-12-01T15:01:08.103Z,19.00
2017-12-01T15:03:34.683Z,21.07
2017-12-01T15:06:01.294Z,24.20
2017-12-01T15:08:27.880Z,23.93
2017-12-01T15:10:54.490Z,24.10
2017-12-01T15:13:21.082Z,23.60
2017-12-01T15:15:47.706Z,24.40
2017-12-01T15:18:14.300Z,19.30
2017-12-01T15:20:40.893Z,25.10
2017-12-01T15:23:07.507Z,28.50
2017-12-01T15:25:34.090Z,22.83
2017-12-01T15:28:00.682Z,25.93
2017-12-01T15:30:27.285Z,30.97
2017-12-01T15:32:53.870Z,28.23
2017-12-01T15:35:20.471Z,26.30
2017-12-01T15:37:47.055Z,33.40
2017-12-01T15:40:13.650Z,28.00
2017-12-01T15:42:40.246Z,27.60
2017-12-01T15:45:06.846Z,24.20
2017-12-01T15:47:33.454Z,30.50
2017-12-01T15:50:00.042Z,28.27
2017-12-01T15:52:26.638Z,27.60
2017-12-01T15:54:53.236Z,29.57
2017-12-01T15:57:19.832Z,30.70
2017-12-01T15:59:46.427Z,32.10
2017-12-01T16:02:13.036Z,29.57
2017-12-01T16:04:39.679Z,26.83
2017-12-01T16:07:06.408Z,33.20
2017-12-01T16:09:32.981Z,28.40
2017-12-01T16:12:02.743Z,30.23
2017-12-01T16:14:29.430Z,31.03
2017-12-01T16:16:56.014Z,28.13
2017-12-01T16:19:22.669Z,29.93
2017-12-01T16:21:50.401Z,30.23
2017-12-01T16:24:17.104Z,30.93
2017-12-01T16:26:43.772Z,30.13
2017-12-01T16:29:10.436Z,30.17
2017-12-01T16:31:37.525Z,30.90
2017-12-01T16:34:04.192Z,31.03
2017-12-01T16:36:30.846Z,31.63
2017-12-01T16:38:57.449Z,29.57
2017-12-01T16:41:24.033Z,30.80
2017-12-01T16:43:50.621Z,34.50
2017-12-01T16:46:17.210Z,32.77
2017-12-01T16:48:43.821Z,35.93
2017-12-01T16:51:10.400Z,31.70
2017-12-01T16:53:36.994Z,30.87
2017-12-01T16:56:03.605Z,29.10
2017-12-01T16:58:30.190Z,32.60
2017-12-01T17:00:56.790Z,30.80
2017-12-01T17:03:23.395Z,33.97
2017-12-01T17:05:49.991Z,33.07
2017-12-01T17:08:16.575Z,32.90
2017-12-01T17:10:43.202Z,34.53
2017-12-01T17:13:09.814Z,30.80
2017-12-01T17:15:36.421Z,35.00
2017-12-01T17:18:03.018Z,35.60
2017-12-01T17:20:29.613Z,29.93
2017-12-01T17:22:56.201Z,31.10
2017-12-01T17:25:22.801Z,35.27
2017-12-01T17:27:49.418Z,32.73
2017-12-01T17:30:16.012Z,34.33
2017-12-01T17:32:42.754Z,35.53
2017-12-01T17:35:09.379Z,31.00
2017-12-01T17:37:36.061Z,34.10
2017-12-01T17:40:02.590Z,32.83
2017-12-01T17:42:29.215Z,30.67
2017-12-01T17:44:55.819Z,32.70
2017-12-01T17:47:22.411Z,32.30
2017-12-01T17:49:49.139Z,36.50
2017-12-01T17:52:16.119Z,36.33
2017-12-01T17:54:42.751Z,36.43
2017-12-01T17:57:09.374Z,36.73
2017-12-01T17:59:35.978Z,32.80
2017-12-01T18:02:02.598Z,33.17
2017-12-01T18:04:29.193Z,31.87
2017-12-01T18:06:55.778Z,32.83
2017-12-01T18:09:22.602Z,30.93
2017-12-01T18:11:49.178Z,30.50
2017-12-01T18:14:15.771Z,28.77
2017-12-01T18:16:42.373Z,31.50
2017-12-01T18:19:08.967Z,31.90
2017-12-01T18:21:35.571Z,33.97
2017-12-01T18:24:02.182Z,43.03
2017-12-01T18:26:28.766Z,59.63
2017-12-01T18:28:55.358Z,52.87
2017-12-01T18:31:21.982Z,44.50
2017-12-01T18:33:48.579Z,37.63
2017-12-01T18:36:15.167Z,34.20
2017-12-01T18:38:41.783Z,36.87
2017-12-01T18:41:08.390Z,27.50
2017-12-01T18:43:34.978Z,31.30
2017-12-01T18:46:01.618Z,33.17
2017-12-01T18:48:28.206Z,29.83
2017-12-01T18:50:57.767Z,29.50
2017-12-01T18:53:24.370Z,29.60
2017-12-01T18:55:50.958Z,30.67
2017-12-01T18:58:17.550Z,33.13
2017-12-01T19:00:44.155Z,34.07
2017-12-01T19:03:10.757Z,31.63
2017-12-01T19:05:37.380Z,33.13
2017-12-01T19:08:03.966Z,31.77
2017-12-01T19:10:30.550Z,33.30
2017-12-01T19:12:57.146Z,33.13
2017-12-01T19:15:23.748Z,32.43
2017-12-01T19:17:50.334Z,30.50
2017-12-01T19:20:16.918Z,30.50
2017-12-01T19:22:43.518Z,28.30
2017-12-01T19:25:10.114Z,31.97
2017-12-01T19:27:36.714Z,28.40
2017-12-01T19:30:03.318Z,31.10
2017-12-01T19:32:29.913Z,34.07
2017-12-01T19:34:56.509Z,33.47
2017-12-01T19:37:23.114Z,31.43
2017-12-01T19:39:49.706Z,32.33
2017-12-01T19:42:16.307Z,28.67
2017-12-01T19:44:42.935Z,35.30
2017-12-01T19:47:09.523Z,31.00
2017-12-01T19:49:36.106Z,29.33
2017-12-01T19:52:02.734Z,28.83
2017-12-01T19:54:29.322Z,32.13
2017-12-01T19:56:55.926Z,29.50
2017-12-01T19:59:22.565Z,32.77
2017-12-01T20:01:49.150Z,35.80
2017-12-01T20:04:15.742Z,35.47
2017-12-01T20:06:42.350Z,33.17
2017-12-01T20:09:08.937Z,33.27
2017-12-01T20:11:35.526Z,35.60
2017-12-01T20:14:02.158Z,32.80
2017-12-01T20:16:33.750Z,35.43
2017-12-01T20:19:00.346Z,35.07
2017-12-01T20:21:26.970Z,32.07
2017-12-01T20:23:53.565Z,32.37
2017-12-01T20:26:20.162Z,28.40
2017-12-01T20:28:46.774Z,31.77
2017-12-01T20:31:13.367Z,32.70
2017-12-01T20:33:39.954Z,33.07
2017-12-01T20:36:06.561Z,29.73
2017-12-01T20:38:33.146Z,29.93
2017-12-01T20:40:59.750Z,26.30
2017-12-01T20:43:26.346Z,27.00
2017-12-01T20:45:52.933Z,28.10
2017-12-01T20:48:19.523Z,25.40
2017-12-01T20:50:46.126Z,30.57
2017-12-01T20:53:12.714Z,30.80
2017-12-01T20:55:39.326Z,31.97
2017-12-01T20:58:06.033Z,32.63
2017-12-01T21:00:32.612Z,28.27
2017-12-01T21:02:59.194Z,29.17
2017-12-01T21:05:25.843Z,33.53
2017-12-01T21:07:53.370Z,33.83
2017-12-01T21:10:19.954Z,42.60
2017-12-01T21:12:46.566Z,35.33
2017-12-01T21:15:13.221Z,33.90
2017-12-01T21:17:39.819Z,33.17
2017-12-01T21:20:06.430Z,31.47
2017-12-01T21:22:33.014Z,25.27
2017-12-01T21:24:59.606Z,27.57
2017-12-01T21:27:26.230Z,28.77
2017-12-01T21:29:52.846Z,28.53
2017-12-01T21:32:19.434Z,38.77
2017-12-01T21:34:46.043Z,44.10
2017-12-01T21:37:12.625Z,38.60
2017-12-01T21:39:39.210Z,41.27
2017-12-01T21:42:05.834Z,34.00
2017-12-01T21:44:32.426Z,32.97
2017-12-01T21:46:59.013Z,35.50
2017-12-01T21:49:25.634Z,32.27
2017-12-01T21:51:52.235Z,32.53
2017-12-01T21:54:18.833Z,28.30
2017-12-01T21:56:45.454Z,31.50
2017-12-01T21:59:12.049Z,25.97
2017-12-01T22:01:38.656Z,27.30
2017-12-01T22:04:05.254Z,30.80
2017-12-01T22:06:31.845Z,33.40
2017-12-01T22:08:58.434Z,32.60
2017-12-01T22:11:25.091Z,31.50
2017-12-01T22:13:51.678Z,31.77
2017-12-01T22:16:18.353Z,29.10
2017-12-01T22:18:44.907Z,29.93
2017-12-01T22:21:11.498Z,31.53
2017-12-01T22:23:38.090Z,42.20
2017-12-01T22:26:04.694Z,40.87
2017-12-01T22:28:31.297Z,42.93
2017-12-01T22:30:57.886Z,43.30
2017-12-01T22:33:24.494Z,39.13
2017-12-01T22:35:51.090Z,37.87
2017-12-01T22:38:17.682Z,37.53
2017-12-01T22:40:44.302Z,36.00
2017-12-01T22:43:10.986Z,34.07
2017-12-01T22:45:37.574Z,40.50
2017-12-01T22:48:04.178Z,38.53
2017-12-01T22:50:30.797Z,40.80
2017-12-01T22:52:57.380Z,38.47
2017-12-01T22:55:23.994Z,36.20
2017-12-01T22:57:50.582Z,40.43
2017-12-01T23:00:17.204Z,35.43
2017-12-01T23:02:43.807Z,35.90
2017-12-01T23:05:11.230Z,34.07
2017-12-01T23:07:37.854Z,37.57
2017-12-01T23:10:04.459Z,35.93
2017-12-01T23:12:31.054Z,37.47
2017-12-01T23:14:57.649Z,38.13
2017-12-01T23:17:24.871Z,37.97
2017-12-01T23:19:51.459Z,36.23
2017-12-01T23:22:18.051Z,37.73
2017-12-01T23:24:45.559Z,35.93
2017-12-01T23:27:12.142Z,37.80
2017-12-01T23:29:39.662Z,39.47
2017-12-01T23:32:06.264Z,43.17
2017-12-01T23:34:32.863Z,40.57
2017-12-01T23:36:59.446Z,44.87
2017-12-01T23:39:26.053Z,43.33
2017-12-01T23:41:52.649Z,41.63
2017-12-01T23:44:19.246Z,38.87
2017-12-01T23:46:46.658Z,39.00
2017-12-01T23:49:13.246Z,40.53
